Velda Village Hills, Missouri
Current Conditions -  °F | °C
As of 12:51 PM on Saturday 20 Dec 2014 (Local Time) from KSTL Reporting Station
Overcast Overcast  
Wind Chill: 42°   Ceiling: 3200
Heat Index: 42°   Visibility: 7mi
Dew Point: 32°   Wind: 3mph
Humidity: 67%   Direction: 130°SE
Pressure: 30.23"   Gusts: NA
Location:  38.7055°N, 90.3021°W
Report Text: KSTL 201851Z 13003KT 7SM OVC032 06/00 A3023 RMK AO2 SLP245 T00560000
Loading
Personal Weather Stations






























Interactive Weather Map New forecast layout! Learn more

10-Day Weather Forecast

Advertisements
Track Severe Weather on mobile